Time;durP1;ratioP1;P1;durP2;ratioP2;P2;SDS_P1;SDS_P2;PMS_P1;PMS_P2;Temp;Humidity;BMP_temperature;BMP_pressure;BME280_temperature;BME280_humidity;BME280_pressure;Samples;Min_cycle;Max_cycle;Signal;HPM_P1;HPM_P2
2021/10/09 00:00:58;;;;;;;16.90;6.63;;;5.10;26.50;;;;;;4406464;28;655910;-65
2021/10/09 00:03:46;;;;;;;19.83;6.43;;;5.10;99.90;;;;;;4412786;28;656348;-66
2021/10/09 00:06:34;;;;;;;19.08;5.72;;;5.00;99.90;;;;;;4429174;28;658147;-65
2021/10/09 00:09:21;;;;;;;13.47;5.90;;;5.00;99.90;;;;;;4408033;28;656707;-66
2021/10/09 00:12:09;;;;;;;14.07;5.60;;;4.90;1.00;;;;;;4439398;28;657900;-65
2021/10/09 00:14:58;;;;;;;17.00;7.07;;;4.90;1.00;;;;;;4419544;28;656197;-65
2021/10/09 00:17:45;;;;;;;14.73;6.77;;;4.80;99.90;;;;;;4423111;28;655703;-67
2021/10/09 00:20:33;;;;;;;17.87;6.83;;;4.80;99.90;;;;;;4425122;28;657699;-65
2021/10/09 00:23:20;;;;;;;18.50;7.07;;;4.70;1.00;;;;;;4407016;28;656770;-67
2021/10/09 00:26:08;;;;;;;24.50;7.33;;;4.70;4.50;;;;;;4430149;28;656765;-65
2021/10/09 00:28:55;;;;;;;14.43;6.37;;;4.60;99.90;;;;;;4411965;28;655645;-66
2021/10/09 00:31:44;;;;;;;12.97;6.87;;;4.60;1.00;;;;;;4428018;28;657654;-65
2021/10/09 00:34:32;;;;;;;13.30;6.20;;;4.60;1.00;;;;;;4410237;28;655799;-65
2021/10/09 00:37:19;;;;;;;20.85;6.68;;;4.50;99.90;;;;;;4428925;28;655710;-65
2021/10/09 00:40:08;;;;;;;18.47;6.40;;;4.50;99.90;;;;;;4408499;28;656768;-65
2021/10/09 00:42:55;;;;;;;17.03;5.97;;;4.40;1.00;;;;;;4415112;28;656788;-67
2021/10/09 00:45:51;;;;;;;18.17;6.63;;;4.40;1.00;;;;;;4434487;28;657050;-65
2021/10/09 00:48:40;;;;;;;17.60;6.10;;;4.30;7.80;;;;;;4406430;28;655324;-65
2021/10/09 00:51:27;;;;;;;19.13;6.17;;;4.30;99.90;;;;;;4419769;28;656602;-66
2021/10/09 00:54:16;;;;;;;17.97;6.43;;;4.30;99.90;;;;;;4436311;28;657564;-65
2021/10/09 00:57:04;;;;;;;14.93;6.60;;;4.20;1.00;;;;;;4434383;28;657354;-65
2021/10/09 00:59:51;;;;;;;19.30;6.60;;;4.20;1.00;;;;;;4414316;28;655346;-66
2021/10/09 01:02:39;;;;;;;16.53;6.97;;;4.20;1.00;;;;;;4435171;28;656165;-65
2021/10/09 01:05:28;;;;;;;19.47;6.67;;;4.10;96.00;;;;;;4419503;28;655303;-66
2021/10/09 01:08:15;;;;;;;18.17;6.73;;;4.10;99.90;;;;;;4407977;28;656933;-66
2021/10/09 01:11:03;;;;;;;15.33;6.93;;;4.00;99.90;;;;;;4426056;28;657733;-65
2021/10/09 01:13:50;;;;;;;19.13;6.82;;;4.00;99.90;;;;;;4416139;28;656807;-66
2021/10/09 01:16:38;;;;;;;16.20;6.20;;;4.00;99.90;;;;;;4432175;28;657205;-65
2021/10/09 01:19:26;;;;;;;18.13;7.10;;;4.00;99.90;;;;;;4411192;28;656757;-67
2021/10/09 01:22:15;;;;;;;16.87;6.80;;;3.90;1.00;;;;;;4433680;28;657835;-65
2021/10/09 01:25:02;;;;;;;22.93;7.20;;;3.90;1.00;;;;;;4403767;28;656219;-65
2021/10/09 01:27:49;;;;;;;15.18;6.70;;;3.80;1.00;;;;;;4421715;28;655998;-65
2021/10/09 01:30:37;;;;;;;16.27;6.40;;;3.80;1.00;;;;;;4412121;28;656721;-65
2021/10/09 01:33:24;;;;;;;18.23;7.80;;;3.70;1.00;;;;;;4433313;28;655723;-65
2021/10/09 01:36:12;;;;;;;20.07;7.07;;;3.70;1.00;;;;;;4411497;28;655884;-65
2021/10/09 01:39:01;;;;;;;19.87;7.87;;;3.70;1.00;;;;;;4412261;28;655665;-65
2021/10/09 01:41:49;;;;;;;21.97;7.57;;;3.60;1.00;;;;;;4407765;28;656605;-65
2021/10/09 01:44:37;;;;;;;17.80;7.13;;;3.60;1.00;;;;;;4408730;28;655371;-65
2021/10/09 01:47:24;;;;;;;20.10;7.70;;;3.60;1.00;;;;;;4430255;28;655275;-65
2021/10/09 01:50:12;;;;;;;22.00;7.30;;;3.60;24.00;;;;;;4412952;28;655342;-65
2021/10/09 01:52:59;;;;;;;24.43;7.83;;;3.50;83.30;;;;;;4421049;28;656939;-65
2021/10/09 01:55:48;;;;;;;23.77;7.33;;;3.50;99.90;;;;;;4409434;28;656682;-65
2021/10/09 01:58:36;;;;;;;22.40;7.73;;;3.50;99.90;;;;;;4407324;28;656534;-66
2021/10/09 02:01:23;;;;;;;22.77;7.85;;;3.40;46.00;;;;;;4431665;28;657939;-65
2021/10/09 02:04:11;;;;;;;15.50;7.27;;;3.40;91.30;;;;;;4403613;28;656394;-65
2021/10/09 02:06:58;;;;;;;21.07;7.40;;;3.30;99.90;;;;;;4416936;28;657129;-65
2021/10/09 02:09:46;;;;;;;21.47;8.43;;;3.30;99.90;;;;;;4407931;28;656473;-65
2021/10/09 02:12:35;;;;;;;17.95;7.22;;;3.30;99.90;;;;;;4426572;28;657540;-65
2021/10/09 02:15:27;;;;;;;17.65;7.18;;;3.30;99.90;;;;;;4406268;28;657569;-65
2021/10/09 02:18:28;;;;;;;18.70;7.03;;;3.30;99.90;;;;;;4398880;28;656924;-66
2021/10/09 02:24:30;;;;;;;21.87;7.40;;;3.20;99.90;;;;;;4386533;28;656717;-66
2021/10/09 02:27:17;;;;;;;16.20;7.18;;;3.20;99.90;;;;;;4415642;28;656230;-66
2021/10/09 02:30:08;;;;;;;21.70;7.87;;;3.20;99.90;;;;;;4426190;28;656606;-67
2021/10/09 02:32:56;;;;;;;22.63;6.93;;;3.20;99.90;;;;;;4409948;28;656531;-66
2021/10/09 02:35:43;;;;;;;19.90;7.70;;;3.20;99.90;;;;;;4436431;28;657347;-66
2021/10/09 02:38:30;;;;;;;16.63;7.07;;;3.10;99.90;;;;;;4413681;28;656461;-67
2021/10/09 02:41:18;;;;;;;19.73;7.60;;;3.10;99.90;;;;;;4430257;28;658038;-65
2021/10/09 02:44:06;;;;;;;21.17;7.90;;;3.10;99.90;;;;;;4411140;28;656774;-66
2021/10/09 02:46:55;;;;;;;17.10;7.27;;;3.10;99.90;;;;;;4430908;28;657310;-66
2021/10/09 02:49:43;;;;;;;21.70;7.90;;;3.10;99.90;;;;;;4423668;28;657168;-65
2021/10/09 02:52:30;;;;;;;15.93;7.70;;;3.00;99.90;;;;;;4423884;28;656318;-66
2021/10/09 02:55:19;;;;;;;21.93;8.37;;;3.00;99.90;;;;;;4434320;28;657978;-65
2021/10/09 02:58:06;;;;;;;19.10;7.57;;;3.00;99.90;;;;;;4412314;28;657502;-65
2021/10/09 03:00:54;;;;;;;18.33;7.80;;;3.00;99.90;;;;;;4439842;28;657621;-64
2021/10/09 03:03:42;;;;;;;26.83;9.70;;;3.00;99.90;;;;;;4414887;28;656967;-65
2021/10/09 03:06:30;;;;;;;22.73;9.00;;;2.90;99.90;;;;;;4429948;28;656838;-68
2021/10/09 03:09:18;;;;;;;31.37;9.33;;;2.90;99.90;;;;;;4434229;28;657933;-66
2021/10/09 03:12:06;;;;;;;19.97;7.47;;;2.90;1.00;;;;;;4420650;28;656565;-67
2021/10/09 03:14:53;;;;;;;19.52;8.02;;;2.90;1.00;;;;;;4429302;28;656241;-66
2021/10/09 03:17:41;;;;;;;22.07;7.87;;;2.90;1.00;;;;;;4412623;28;655986;-66
2021/10/09 03:20:30;;;;;;;20.60;7.70;;;2.90;1.00;;;;;;4433998;28;657928;-68
2021/10/09 03:23:17;;;;;;;18.83;8.37;;;2.80;1.00;;;;;;4419323;28;656270;-65
2021/10/09 03:26:05;;;;;;;27.63;9.50;;;2.90;1.00;;;;;;4428322;28;655275;-67
2021/10/09 03:28:53;;;;;;;22.97;8.57;;;2.90;1.00;;;;;;4433357;28;657191;-66
2021/10/09 03:31:40;;;;;;;17.83;7.63;;;2.90;1.00;;;;;;4414003;28;655849;-67
2021/10/09 03:34:32;;;;;;;28.37;8.07;;;2.90;1.00;;;;;;4431905;28;656844;-66
2021/10/09 03:37:22;;;;;;;21.87;7.77;;;2.90;1.00;;;;;;4431827;28;656003;-67
2021/10/09 03:40:13;;;;;;;19.83;7.80;;;2.90;1.00;;;;;;4432503;28;656114;-67
2021/10/09 03:43:05;;;;;;;22.27;8.00;;;2.80;1.00;;;;;;4383485;28;656144;-66
2021/10/09 03:45:58;;;;;;;24.17;8.90;;;2.80;1.00;;;;;;4405829;28;656278;-66
2021/10/09 03:48:57;;;;;;;24.17;9.53;;;2.80;1.00;;;;;;4389932;28;655650;-66
2021/10/09 03:54:54;;;;;;;33.40;10.30;;;2.80;1.00;;;;;;4381122;28;655644;-66
2021/10/09 03:57:44;;;;;;;27.10;10.03;;;2.80;1.00;;;;;;4413840;28;656977;-67
2021/10/09 04:00:34;;;;;;;29.20;12.03;;;2.80;1.00;;;;;;4410004;28;656390;-66
2021/10/09 04:03:23;;;;;;;41.97;13.60;;;2.80;1.00;;;;;;4412239;28;656592;-66
2021/10/09 04:06:14;;;;;;;40.55;12.65;;;2.80;1.00;;;;;;4403091;28;656939;-67
2021/10/09 04:09:02;;;;;;;34.97;11.90;;;2.80;1.00;;;;;;4418331;28;656526;-67
2021/10/09 04:11:51;;;;;;;28.37;9.67;;;2.80;1.00;;;;;;4443947;28;657303;-66
2021/10/09 04:14:38;;;;;;;24.00;9.40;;;2.70;1.00;;;;;;4424106;28;655788;-66
2021/10/09 04:17:26;;;;;;;22.43;9.10;;;2.70;1.00;;;;;;4421735;28;655737;-67
2021/10/09 04:20:13;;;;;;;20.97;8.87;;;2.70;1.00;;;;;;4445904;28;656811;-66
2021/10/09 04:23:01;;;;;;;38.23;9.40;;;2.70;1.00;;;;;;4414492;28;655650;-66
2021/10/09 04:25:48;;;;;;;20.23;8.50;;;2.60;1.00;;;;;;4449297;28;656407;-66
2021/10/09 04:28:37;;;;;;;27.57;9.30;;;2.60;1.00;;;;;;4427246;28;655614;-66
2021/10/09 04:31:25;;;;;;;23.23;8.73;;;2.60;1.00;;;;;;4446854;28;656081;-66
2021/10/09 04:34:12;;;;;;;23.73;9.77;;;2.60;1.00;;;;;;4410341;28;655942;-66
2021/10/09 04:36:59;;;;;;;26.03;8.83;;;2.50;1.00;;;;;;4422579;28;656217;-66
2021/10/09 04:39:47;;;;;;;18.77;8.70;;;2.50;1.00;;;;;;4406078;28;655841;-66
2021/10/09 04:42:35;;;;;;;19.13;9.37;;;2.40;1.00;;;;;;4411054;28;655974;-66
2021/10/09 04:45:24;;;;;;;28.97;10.00;;;2.40;1.00;;;;;;4395192;28;656342;-66
2021/10/09 04:48:11;;;;;;;30.90;11.07;;;2.40;1.00;;;;;;4381287;28;657412;-67
2021/10/09 04:50:59;;;;;;;30.33;11.00;;;2.30;1.00;;;;;;4404386;28;657436;-66
2021/10/09 04:54:26;;;;;;;27.67;11.20;;;2.30;1.00;;;;;;4391426;28;656317;-66
2021/10/09 04:57:14;;;;;;;21.90;9.60;;;2.30;1.00;;;;;;4390442;28;657390;-66
2021/10/09 05:00:01;;;;;;;21.83;9.70;;;2.30;1.00;;;;;;4404321;28;656190;-66
2021/10/09 05:02:50;;;;;;;23.67;10.13;;;2.30;1.00;;;;;;4425105;28;656530;-65
2021/10/09 05:05:37;;;;;;;25.60;8.90;;;2.30;1.00;;;;;;4399638;28;657223;-66
2021/10/09 05:08:25;;;;;;;26.30;9.23;;;2.30;1.00;;;;;;4418780;28;655487;-67
2021/10/09 05:11:14;;;;;;;23.37;10.10;;;2.30;1.00;;;;;;4422537;28;657483;-66
2021/10/09 05:14:01;;;;;;;27.23;9.67;;;2.30;1.00;;;;;;4401319;28;657513;-67
2021/10/09 05:16:49;;;;;;;20.73;9.23;;;2.30;1.00;;;;;;4422884;28;655912;-66
2021/10/09 05:19:38;;;;;;;25.57;9.67;;;2.40;1.00;;;;;;4401753;28;655581;-66
2021/10/09 05:22:25;;;;;;;24.67;9.90;;;2.40;1.00;;;;;;4405154;28;655875;-67
2021/10/09 05:25:13;;;;;;;22.87;10.13;;;2.50;1.00;;;;;;4421264;28;657336;-66
2021/10/09 05:28:04;;;;;;;24.63;9.38;;;2.50;1.00;;;;;;4400144;28;656637;-67
2021/10/09 05:31:01;;;;;;;22.80;9.93;;;2.60;1.00;;;;;;4402547;28;655828;-66
2021/10/09 05:33:48;;;;;;;20.20;9.87;;;2.70;1.00;;;;;;4403802;28;655836;-77
2021/10/09 05:36:38;;;;;;;19.43;8.87;;;2.70;1.00;;;;;;4393659;28;655563;-77
2021/10/09 05:39:25;;;;;;;21.00;9.50;;;2.80;1.00;;;;;;4411529;28;655942;-78
2021/10/09 05:42:13;;;;;;;21.10;9.87;;;2.90;1.00;;;;;;4419351;28;655769;-77
2021/10/09 05:45:01;;;;;;;21.87;8.90;;;3.00;1.00;;;;;;4396238;28;657440;-77
2021/10/09 05:47:50;;;;;;;26.50;9.77;;;3.00;1.00;;;;;;4417704;28;656053;-76
2021/10/09 05:50:45;;;;;;;18.70;10.07;;;3.10;1.00;;;;;;4383979;28;656905;-80
2021/10/09 05:56:51;;;;;;;23.33;9.23;;;3.30;1.00;;;;;;4374833;28;657369;-77
2021/10/09 06:00:06;;;;;;;23.70;10.10;;;3.50;1.00;;;;;;4394129;28;655737;-77
2021/10/09 06:31:26;;;;;;;23.83;10.20;;;4.70;1.00;;;;;;4345990;28;656821;-77
2021/10/09 06:37:47;;;;;;;21.13;9.30;;;5.00;99.90;;;;;;4340423;28;658578;-77
2021/10/09 06:44:04;;;;;;;23.42;10.10;;;5.30;99.90;;;;;;4342377;28;658441;-78
2021/10/09 06:59:30;;;;;;;24.50;9.33;;;5.80;99.90;;;;;;4397748;28;657969;-78
2021/10/09 07:02:18;;;;;;;20.60;9.97;;;5.90;99.90;;;;;;4396411;28;656603;-77
2021/10/09 07:05:06;;;;;;;21.20;9.43;;;6.00;99.90;;;;;;4399594;28;656779;-78
2021/10/09 07:07:57;;;;;;;21.40;9.83;;;6.10;99.90;;;;;;4416044;28;657490;-77
2021/10/09 07:10:46;;;;;;;24.95;9.30;;;6.30;99.90;;;;;;4398395;28;656331;-78
2021/10/09 07:13:35;;;;;;;21.23;9.40;;;6.40;99.90;;;;;;4398006;28;656813;-77
2021/10/09 07:16:23;;;;;;;20.87;8.97;;;6.50;70.10;;;;;;4397049;28;657406;-76
2021/10/09 07:19:11;;;;;;;20.67;8.50;;;6.60;12.80;;;;;;4403426;28;657030;-78
2021/10/09 07:21:58;;;;;;;21.27;8.60;;;6.70;6.90;;;;;;4417180;28;658678;-78
2021/10/09 07:24:46;;;;;;;19.07;8.87;;;6.90;4.20;;;;;;4393352;28;655579;-75
2021/10/09 07:27:34;;;;;;;19.33;9.00;;;7.00;30.00;;;;;;4418475;28;656451;-77
2021/10/09 07:30:23;;;;;;;23.83;8.18;;;7.20;1.00;;;;;;4385085;28;656460;-77
2021/10/09 07:33:11;;;;;;;19.70;8.68;;;7.30;1.00;;;;;;4398937;28;655664;-78
2021/10/09 07:35:59;;;;;;;21.23;9.33;;;7.50;23.00;;;;;;4422766;28;656532;-78
2021/10/09 07:38:47;;;;;;;19.83;9.47;;;7.40;47.40;;;;;;4395709;28;656708;-77
2021/10/09 07:41:34;;;;;;;20.90;8.93;;;7.60;1.00;;;;;;4429788;28;657503;-76
2021/10/09 07:44:23;;;;;;;21.00;7.47;;;7.70;2.00;;;;;;4411575;28;655588;-77
2021/10/09 07:47:13;;;;;;;15.60;7.70;;;7.70;45.80;;;;;;4425843;28;656188;-78
2021/10/09 07:50:01;;;;;;;20.20;8.40;;;7.90;4.50;;;;;;4419290;28;656383;-79
2021/10/09 07:52:48;;;;;;;23.80;8.20;;;8.00;99.90;;;;;;4429102;28;655288;-78
2021/10/09 07:55:37;;;;;;;22.93;7.33;;;8.30;99.90;;;;;;4409271;28;657013;-82
2021/10/09 07:58:24;;;;;;;17.97;7.47;;;8.30;1.00;;;;;;4430270;28;656616;-81
2021/10/09 08:01:12;;;;;;;21.63;7.70;;;8.50;1.00;;;;;;4388372;28;655462;-76
2021/10/09 08:04:02;;;;;;;19.10;8.30;;;8.70;1.00;;;;;;4432866;28;656170;-78
2021/10/09 08:06:49;;;;;;;18.30;7.37;;;8.90;1.00;;;;;;4399585;28;655248;-80
2021/10/09 08:09:37;;;;;;;21.27;8.40;;;9.00;54.50;;;;;;4414147;28;656062;-80
2021/10/09 08:12:25;;;;;;;23.52;8.57;;;9.20;53.90;;;;;;4436008;28;656520;-80
2021/10/09 08:15:12;;;;;;;30.40;8.80;;;9.30;54.00;;;;;;4412327;28;657671;-80
2021/10/09 08:18:01;;;;;;;22.90;8.10;;;9.50;51.40;;;;;;4437804;28;656006;-81
2021/10/09 08:20:54;;;;;;;24.23;8.57;;;9.60;39.70;;;;;;4441762;28;657815;-81
2021/10/09 08:23:45;;;;;;;18.77;8.03;;;9.90;63.90;;;;;;4412789;28;656484;-80
2021/10/09 08:26:50;;;;;;;20.77;8.07;;;10.20;61.50;;;;;;4406354;28;656725;-80
2021/10/09 08:36:01;;;;;;;22.77;8.30;;;10.30;42.80;;;;;;4387121;28;657891;-80
2021/10/09 08:38:52;;;;;;;21.93;7.80;;;10.50;39.90;;;;;;4380203;28;657630;-78
2021/10/09 08:41:47;;;;;;;21.00;7.40;;;10.70;45.90;;;;;;4342222;28;658144;-79
2021/10/09 08:44:38;;;;;;;20.10;7.30;;;11.00;48.60;;;;;;4323869;28;657624;-80
2021/10/09 08:47:28;;;;;;;18.37;7.13;;;11.00;46.20;;;;;;4336521;28;657665;-79
2021/10/09 08:50:16;;;;;;;24.43;8.50;;;11.00;66.60;;;;;;4345276;28;658177;-78
2021/10/09 08:53:10;;;;;;;22.00;8.07;;;11.10;72.00;;;;;;4395361;28;659334;-77
2021/10/09 08:55:59;;;;;;;25.90;7.43;;;11.10;67.10;;;;;;4318316;28;657512;-76
2021/10/09 08:58:48;;;;;;;23.23;7.37;;;11.30;66.80;;;;;;4320666;28;658112;-79
2021/10/09 09:08:16;;;;;;;24.50;7.50;;;11.60;73.60;;;;;;4327767;28;658114;-77
2021/10/09 09:33:06;;;;;;;13.23;5.90;;;12.60;60.20;;;;;;4355002;28;652328;-76
2021/10/09 09:36:06;;;;;;;16.87;5.67;;;12.90;61.00;;;;;;4359943;28;652538;-77
2021/10/09 09:39:05;;;;;;;17.30;5.10;;;13.10;58.60;;;;;;4348852;28;651465;-75
2021/10/09 09:41:55;;;;;;;11.67;5.60;;;13.20;58.00;;;;;;4298534;28;652256;-78
2021/10/09 09:44:55;;;;;;;12.77;6.27;;;13.10;58.50;;;;;;4388765;28;652267;-77
2021/10/09 09:47:42;;;;;;;13.20;5.57;;;13.30;61.00;;;;;;4348528;28;653461;-77
2021/10/09 09:50:31;;;;;;;10.83;4.87;;;13.70;63.90;;;;;;4420793;28;652254;-79
2021/10/09 09:53:21;;;;;;;14.15;5.00;;;13.80;60.00;;;;;;4390127;28;652883;-79
2021/10/09 09:56:09;;;;;;;12.37;4.60;;;14.00;57.70;;;;;;4392783;28;653665;-80
2021/10/09 09:59:04;;;;;;;11.13;4.70;;;14.10;54.30;;;;;;4442551;28;653929;-77
2021/10/09 10:01:53;;;;;;;10.83;4.70;;;14.20;54.50;;;;;;4406986;28;653426;-78
2021/10/09 10:04:41;;;;;;;8.00;4.67;;;14.30;54.00;;;;;;4429086;28;653911;-77
2021/10/09 10:07:28;;;;;;;12.80;5.47;;;14.30;53.10;;;;;;4439110;28;652738;-76
2021/10/09 10:10:16;;;;;;;21.00;6.17;;;14.40;52.30;;;;;;4398567;28;654216;-75
2021/10/09 10:13:04;;;;;;;11.80;5.10;;;14.40;52.40;;;;;;4490293;28;655107;-77
2021/10/09 10:15:53;;;;;;;8.87;4.50;;;14.60;51.00;;;;;;4390063;28;653306;-75
2021/10/09 10:18:59;;;;;;;17.43;4.67;;;14.50;49.10;;;;;;4411439;28;653143;-80
2021/10/09 10:21:48;;;;;;;11.33;4.70;;;14.20;48.80;;;;;;4433223;28;653734;-76
2021/10/09 10:24:46;;;;;;;12.93;4.70;;;14.40;51.60;;;;;;4419177;28;653224;-77
2021/10/09 10:27:36;;;;;;;11.77;4.90;;;14.50;49.70;;;;;;4405942;28;654705;-76
2021/10/09 10:30:25;;;;;;;17.13;5.53;;;14.70;47.80;;;;;;4412318;28;653593;-77
2021/10/09 10:33:32;;;;;;;9.03;4.90;;;14.80;47.90;;;;;;4431455;28;655334;-77
2021/10/09 10:36:38;;;;;;;12.10;5.07;;;15.10;47.90;;;;;;4435114;28;653531;-79
2021/10/09 10:39:38;;;;;;;15.23;4.77;;;15.30;47.60;;;;;;4414809;28;653813;-77
2021/10/09 10:42:30;;;;;;;15.87;4.97;;;15.30;47.80;;;;;;4394975;28;653551;-78
2021/10/09 10:45:34;;;;;;;10.37;4.93;;;15.50;47.90;;;;;;4424336;28;653498;-79
2021/10/09 10:48:46;;;;;;;14.23;5.33;;;15.50;45.40;;;;;;4412707;28;653421;-79
2021/10/09 10:51:45;;;;;;;10.80;4.93;;;15.40;45.70;;;;;;4424211;28;653930;-79
2021/10/09 10:54:35;;;;;;;18.30;5.90;;;15.80;47.10;;;;;;4384205;28;654199;-78
2021/10/09 10:57:24;;;;;;;10.60;5.40;;;16.10;46.80;;;;;;4412716;28;653698;-75
2021/10/09 11:00:16;;;;;;;9.53;5.10;;;16.40;45.60;;;;;;4394694;28;653439;-78
2021/10/09 11:03:03;;;;;;;11.53;5.47;;;16.50;45.30;;;;;;4410385;28;652811;-78
2021/10/09 11:05:53;;;;;;;14.37;5.30;;;16.70;44.20;;;;;;4430625;28;653867;-78
2021/10/09 11:08:44;;;;;;;8.73;5.33;;;16.70;46.00;;;;;;4421358;28;653437;-79
2021/10/09 11:11:35;;;;;;;23.50;7.23;;;17.00;44.30;;;;;;4401727;28;652555;-79
2021/10/09 11:14:23;;;;;;;10.80;5.20;;;17.10;45.20;;;;;;4415122;28;654631;-77
2021/10/09 11:17:11;;;;;;;9.97;4.60;;;17.30;42.80;;;;;;4420210;28;653104;-76
2021/10/09 11:19:58;;;;;;;12.43;5.10;;;17.20;42.10;;;;;;4438230;28;652925;-76
2021/10/09 11:22:47;;;;;;;10.93;5.72;;;17.00;39.30;;;;;;4428891;28;653206;-77
2021/10/09 11:25:38;;;;;;;11.77;5.20;;;16.90;40.30;;;;;;4427986;28;653158;-77
2021/10/09 11:28:29;;;;;;;9.93;4.40;;;16.90;41.30;;;;;;4413614;28;653765;-78
2021/10/09 11:31:24;;;;;;;15.40;4.10;;;16.80;40.60;;;;;;4428709;28;652864;-76
2021/10/09 11:34:12;;;;;;;17.20;4.63;;;16.70;40.40;;;;;;4401409;28;655775;-78
2021/10/09 11:36:59;;;;;;;9.40;4.45;;;16.80;39.90;;;;;;4430517;28;654591;-75
2021/10/09 11:39:49;;;;;;;9.30;4.70;;;16.70;41.40;;;;;;4433206;28;652227;-78
2021/10/09 11:42:52;;;;;;;17.27;4.80;;;17.10;44.20;;;;;;4432634;28;652060;-78
2021/10/09 11:45:47;;;;;;;15.60;4.90;;;17.60;40.60;;;;;;4405959;28;653955;-79
2021/10/09 11:57:52;;;;;;;12.83;5.27;;;17.50;38.30;;;;;;4406632;28;653604;-80
2021/10/09 12:00:41;;;;;;;11.50;4.27;;;17.70;39.20;;;;;;4376014;28;653564;-79
2021/10/09 12:03:38;;;;;;;8.43;4.33;;;17.90;38.50;;;;;;4364198;28;654049;-80
2021/10/09 12:06:41;;;;;;;10.40;5.20;;;17.30;37.00;;;;;;4362563;28;652950;-79
2021/10/09 12:09:38;;;;;;;9.83;5.33;;;17.30;38.90;;;;;;4399529;28;654497;-80
2021/10/09 12:12:31;;;;;;;13.87;5.10;;;17.40;40.00;;;;;;4394551;28;652294;-79
2021/10/09 12:15:26;;;;;;;9.93;5.03;;;17.60;40.10;;;;;;4398781;28;653924;-80
2021/10/09 12:18:15;;;;;;;16.37;5.63;;;17.80;39.60;;;;;;4385264;28;654231;-80
2021/10/09 12:21:09;;;;;;;15.03;5.80;;;17.80;40.20;;;;;;4421363;28;655077;-77
2021/10/09 12:23:57;;;;;;;14.27;5.70;;;17.90;39.20;;;;;;4447560;28;654528;-78
2021/10/09 12:27:00;;;;;;;15.00;5.80;;;18.00;38.80;;;;;;4444058;28;654737;-76
2021/10/09 12:29:59;;;;;;;12.00;5.63;;;18.30;39.10;;;;;;4385077;28;656116;-76
2021/10/09 12:32:49;;;;;;;10.63;5.50;;;18.60;38.60;;;;;;4420079;28;654471;-77
2021/10/09 12:35:38;;;;;;;15.23;6.00;;;18.70;38.50;;;;;;4430832;28;654231;-76
2021/10/09 12:38:29;;;;;;;9.98;6.07;;;18.10;39.10;;;;;;4401522;28;654917;-78
2021/10/09 12:41:17;;;;;;;15.25;6.13;;;18.50;39.00;;;;;;4423235;28;653453;-77
2021/10/09 12:44:05;;;;;;;12.30;6.23;;;19.00;39.10;;;;;;4423027;28;655349;-76
2021/10/09 12:46:53;;;;;;;11.77;6.00;;;18.90;38.10;;;;;;4401295;28;656013;-76
2021/10/09 12:49:42;;;;;;;14.20;6.60;;;19.30;38.20;;;;;;4421555;28;655164;-77
2021/10/09 12:52:30;;;;;;;22.87;8.00;;;19.40;37.50;;;;;;4447349;28;655510;-76
2021/10/09 12:55:18;;;;;;;18.67;6.70;;;19.80;38.20;;;;;;4427375;28;654694;-76
2021/10/09 12:58:07;;;;;;;15.43;7.88;;;20.00;38.20;;;;;;4409396;28;654618;-79
2021/10/09 13:00:54;;;;;;;16.43;7.70;;;20.00;37.70;;;;;;4424203;28;654489;-76
2021/10/09 13:03:42;;;;;;;13.37;7.20;;;19.90;36.50;;;;;;4429214;28;655206;-76
2021/10/09 13:06:35;;;;;;;16.80;6.87;;;20.20;36.10;;;;;;4378178;28;654766;-77
2021/10/09 13:09:23;;;;;;;18.23;7.50;;;20.40;35.90;;;;;;4378016;28;654720;-77
2021/10/09 13:12:13;;;;;;;21.77;7.33;;;21.00;36.00;;;;;;4423227;28;654561;-77
2021/10/09 13:15:01;;;;;;;16.63;7.30;;;21.90;36.20;;;;;;4421102;28;655039;-76
2021/10/09 13:17:49;;;;;;;13.67;6.70;;;22.60;34.40;;;;;;4421907;28;654527;-76
2021/10/09 13:20:37;;;;;;;11.93;6.30;;;23.30;34.30;;;;;;4405648;28;654583;-76
2021/10/09 13:23:31;;;;;;;14.57;6.60;;;23.70;33.00;;;;;;4433796;28;655198;-76
2021/10/09 13:26:19;;;;;;;13.97;6.17;;;23.90;31.20;;;;;;4405653;28;655811;-77
2021/10/09 13:29:08;;;;;;;15.07;6.67;;;24.40;30.10;;;;;;4428458;28;655719;-77
2021/10/09 13:31:56;;;;;;;20.43;6.53;;;24.40;31.70;;;;;;4409030;28;654709;-78
2021/10/09 13:34:43;;;;;;;13.53;6.60;;;25.30;30.00;;;;;;4441698;28;654968;-77
2021/10/09 13:37:36;;;;;;;15.13;6.37;;;25.70;30.00;;;;;;4414349;28;654888;-77
2021/10/09 13:40:26;;;;;;;17.90;6.70;;;26.00;29.00;;;;;;4419521;28;655575;-77
2021/10/09 13:43:14;;;;;;;15.63;6.70;;;26.10;28.00;;;;;;4395192;28;654927;-76
2021/10/09 13:46:02;;;;;;;12.90;6.33;;;26.10;26.60;;;;;;4429002;28;654811;-76
2021/10/09 13:48:52;;;;;;;14.25;6.15;;;26.00;26.90;;;;;;4447315;28;654394;-77
2021/10/09 13:51:40;;;;;;;19.20;6.27;;;26.10;26.90;;;;;;4370924;28;654696;-76
2021/10/09 13:54:28;;;;;;;14.27;7.07;;;26.60;26.40;;;;;;4402267;28;656035;-76
2021/10/09 13:57:17;;;;;;;13.97;6.73;;;27.30;26.50;;;;;;4425302;28;654692;-76
2021/10/09 14:00:05;;;;;;;14.33;6.67;;;27.60;25.70;;;;;;4436751;28;654349;-77
2021/10/09 14:02:54;;;;;;;17.43;6.83;;;27.40;25.70;;;;;;4424379;28;655794;-76
2021/10/09 14:05:42;;;;;;;18.80;6.70;;;27.40;25.60;;;;;;4418368;28;654548;-76
2021/10/09 14:08:30;;;;;;;73.90;8.73;;;27.50;25.40;;;;;;4421019;28;654808;-76
2021/10/09 14:11:19;;;;;;;25.33;7.30;;;27.10;25.00;;;;;;4424176;28;656462;-77
2021/10/09 14:14:08;;;;;;;33.93;7.37;;;27.00;26.00;;;;;;4423683;28;654640;-80
2021/10/09 14:16:57;;;;;;;46.90;7.77;;;27.40;25.40;;;;;;4402300;28;656081;-78
2021/10/09 14:19:47;;;;;;;17.67;6.60;;;27.80;25.30;;;;;;4446144;28;655802;-77
2021/10/09 14:22:35;;;;;;;22.70;7.33;;;27.30;24.70;;;;;;4442790;28;655475;-81
2021/10/09 14:25:22;;;;;;;16.77;7.90;;;27.50;25.10;;;;;;4427448;28;656780;-79
2021/10/09 14:28:10;;;;;;;18.67;7.20;;;27.10;25.00;;;;;;4450562;28;655250;-80
2021/10/09 14:30:59;;;;;;;30.97;8.33;;;27.70;25.20;;;;;;4432089;28;655669;-79
2021/10/09 14:33:47;;;;;;;18.30;6.93;;;27.90;25.10;;;;;;4423965;28;655314;-78
2021/10/09 14:36:34;;;;;;;16.70;7.40;;;27.90;24.60;;;;;;4451327;28;655817;-79
2021/10/09 14:39:23;;;;;;;19.10;7.53;;;27.20;25.00;;;;;;4426709;28;656581;-78
2021/10/09 14:42:11;;;;;;;19.70;7.90;;;27.50;25.30;;;;;;4430056;28;656084;-78
2021/10/09 14:44:59;;;;;;;15.33;7.33;;;27.30;25.30;;;;;;4446535;28;656172;-79
2021/10/09 14:47:54;;;;;;;25.03;8.10;;;27.80;25.50;;;;;;4425719;28;655384;-80
2021/10/09 14:54:08;;;;;;;24.53;9.00;;;27.50;25.20;;;;;;4420747;28;655981;-79
2021/10/09 15:18:31;;;;;;;19.97;8.00;;;24.70;27.20;;;;;;4425090;28;655487;-77
2021/10/09 15:21:19;;;;;;;19.50;8.60;;;24.60;27.60;;;;;;4425316;28;655575;-77
2021/10/09 15:24:06;;;;;;;21.67;9.53;;;23.50;28.10;;;;;;4430114;28;655567;-78
2021/10/09 15:26:54;;;;;;;22.10;9.33;;;22.10;29.10;;;;;;4442484;28;655476;-79
2021/10/09 15:29:42;;;;;;;26.53;10.43;;;20.00;31.50;;;;;;4423273;28;655663;-79
2021/10/09 15:32:29;;;;;;;21.50;9.80;;;18.50;33.90;;;;;;4446486;28;656756;-80
2021/10/09 15:35:18;;;;;;;27.07;11.37;;;17.10;35.30;;;;;;4418837;28;656006;-80
2021/10/09 15:38:06;;;;;;;22.37;9.63;;;15.90;37.60;;;;;;4416218;28;657249;-79
2021/10/09 15:40:53;;;;;;;25.53;11.03;;;14.80;38.90;;;;;;4447340;28;656874;-80
2021/10/09 15:43:41;;;;;;;31.53;13.00;;;14.00;40.70;;;;;;4424445;28;656217;-80
2021/10/09 15:46:29;;;;;;;34.90;13.10;;;13.30;42.40;;;;;;4450902;28;657695;-80
2021/10/09 15:49:16;;;;;;;31.80;13.97;;;12.70;43.90;;;;;;4417343;28;656338;-79
2021/10/09 15:52:06;;;;;;;32.33;12.70;;;12.20;45.60;;;;;;4446488;28;656960;-79
2021/10/09 15:54:54;;;;;;;29.90;12.03;;;11.70;47.30;;;;;;4427624;28;656883;-79
2021/10/09 15:57:42;;;;;;;24.77;9.23;;;11.20;48.60;;;;;;4426754;28;656627;-79
2021/10/09 16:00:29;;;;;;;29.10;10.37;;;10.70;50.50;;;;;;4450644;28;655507;-80
2021/10/09 16:03:17;;;;;;;26.83;11.57;;;10.30;52.10;;;;;;4413762;28;657205;-80
2021/10/09 16:06:05;;;;;;;29.37;11.40;;;10.00;53.70;;;;;;4442120;28;656789;-79
2021/10/09 16:08:54;;;;;;;22.50;9.90;;;9.70;56.80;;;;;;4423135;28;657852;-79
2021/10/09 16:11:42;;;;;;;24.85;9.52;;;9.50;58.40;;;;;;4420139;28;654856;-79
2021/10/09 16:14:29;;;;;;;27.17;9.63;;;9.10;62.90;;;;;;4454183;28;654851;-79
2021/10/09 16:17:21;;;;;;;18.40;8.43;;;8.80;65.60;;;;;;4432939;28;654486;-79
2021/10/09 16:20:09;;;;;;;23.23;8.23;;;8.70;68.40;;;;;;4421542;28;656120;-79
2021/10/09 16:22:57;;;;;;;21.80;8.40;;;8.40;71.10;;;;;;4423061;28;654173;-79
2021/10/09 16:25:46;;;;;;;19.03;7.43;;;8.10;73.70;;;;;;4450973;28;654603;-76
2021/10/09 16:28:34;;;;;;;22.40;7.90;;;7.80;74.70;;;;;;4418002;28;655553;-77
2021/10/09 16:31:24;;;;;;;23.27;7.20;;;7.60;77.50;;;;;;4422669;28;654866;-78
2021/10/09 16:34:12;;;;;;;19.35;7.90;;;7.50;80.40;;;;;;4420996;28;654448;-78
2021/10/09 16:36:59;;;;;;;19.13;7.83;;;7.30;81.80;;;;;;4443677;28;654815;-78